createdAt,value
2022-11-24T00:02:55.720Z,11.27
2022-11-24T00:06:07.636Z,11.73
2022-11-24T00:09:11.432Z,10.27
2022-11-24T00:12:14.635Z,9.43
2022-11-24T00:15:17.733Z,11.63
2022-11-24T00:18:21.004Z,10.27
2022-11-24T00:21:25.709Z,8.07
2022-11-24T00:24:28.859Z,8.93
2022-11-24T00:27:31.941Z,10.38
2022-11-24T00:30:37.257Z,10.40
2022-11-24T00:33:40.735Z,10.07
2022-11-24T00:36:44.142Z,8.95
2022-11-24T00:39:47.316Z,11.75
2022-11-24T00:42:50.484Z,10.82
2022-11-24T00:45:53.698Z,9.90
2022-11-24T00:48:57.615Z,10.03
2022-11-24T00:52:00.875Z,9.77
2022-11-24T00:55:04.244Z,10.45
2022-11-24T00:58:07.433Z,10.88
2022-11-24T01:01:16.311Z,9.75
2022-11-24T01:04:19.556Z,12.30
2022-11-24T01:07:22.790Z,9.60
2022-11-24T01:10:26.066Z,12.27
2022-11-24T01:13:29.328Z,12.70
2022-11-24T01:16:34.864Z,12.60
2022-11-24T01:19:38.108Z,11.25
2022-11-24T01:22:44.112Z,12.93
2022-11-24T01:25:47.259Z,13.85
2022-11-24T01:28:55.154Z,12.00
2022-11-24T01:31:58.324Z,13.30
2022-11-24T01:35:01.824Z,14.15
2022-11-24T01:38:04.978Z,15.10
2022-11-24T01:41:16.978Z,14.38
2022-11-24T01:44:29.050Z,16.70
2022-11-24T01:47:35.243Z,15.43
2022-11-24T01:50:41.641Z,15.50
2022-11-24T01:53:51.221Z,16.38
2022-11-24T01:56:57.898Z,17.17
2022-11-24T02:00:07.469Z,16.87
2022-11-24T02:03:27.763Z,19.23
2022-11-24T02:06:33.251Z,17.52
2022-11-24T02:09:56.080Z,20.70
2022-11-24T02:13:00.679Z,20.55
2022-11-24T02:16:05.277Z,21.07
2022-11-24T02:19:22.322Z,21.77
2022-11-24T02:22:46.784Z,23.20
2022-11-24T02:26:18.256Z,22.98
2022-11-24T02:29:21.693Z,19.75
2022-11-24T02:32:25.009Z,21.13
2022-11-24T02:35:28.635Z,19.83
2022-11-24T02:38:33.784Z,19.10
2022-11-24T02:41:37.684Z,19.13
2022-11-24T02:44:48.148Z,22.67
2022-11-24T02:47:51.215Z,18.97
2022-11-24T02:50:55.345Z,19.20
2022-11-24T02:53:58.461Z,20.90
2022-11-24T02:57:01.599Z,19.45
2022-11-24T03:00:05.430Z,19.60
2022-11-24T03:03:08.934Z,19.23
2022-11-24T03:06:14.681Z,20.67
2022-11-24T03:09:20.296Z,19.92
2022-11-24T03:12:23.583Z,20.10
2022-11-24T03:15:26.798Z,18.13
2022-11-24T03:18:29.927Z,17.70
2022-11-24T03:21:33.320Z,19.00
2022-11-24T03:24:36.665Z,19.00
2022-11-24T03:27:40.004Z,19.65
2022-11-24T03:30:43.275Z,19.58
2022-11-24T03:33:46.517Z,19.10
2022-11-24T03:36:49.721Z,18.40
2022-11-24T03:39:52.901Z,19.13
2022-11-24T03:42:56.023Z,19.17
2022-11-24T03:45:59.258Z,20.70
2022-11-24T03:49:02.507Z,19.23
2022-11-24T03:52:08.196Z,21.25
2022-11-24T03:55:11.566Z,18.27
2022-11-24T03:58:14.735Z,19.10
2022-11-24T04:01:18.463Z,19.00
2022-11-24T04:04:21.702Z,18.43
2022-11-24T04:07:24.850Z,16.98
2022-11-24T04:10:28.658Z,17.80
2022-11-24T04:13:31.854Z,18.35
2022-11-24T04:16:35.060Z,16.80
2022-11-24T04:19:38.243Z,18.17
2022-11-24T04:22:41.604Z,19.13
2022-11-24T04:25:44.823Z,16.77
2022-11-24T04:28:48.194Z,19.52
2022-11-24T04:31:51.468Z,21.13
2022-11-24T04:34:54.731Z,22.10
2022-11-24T04:38:01.672Z,22.05
2022-11-24T04:41:05.731Z,21.27
2022-11-24T04:44:08.919Z,22.88
2022-11-24T04:47:18.317Z,24.60
2022-11-24T04:50:21.545Z,27.13
2022-11-24T04:53:24.675Z,25.92
2022-11-24T04:56:27.761Z,27.77
2022-11-24T04:59:31.049Z,23.70
2022-11-24T05:02:34.215Z,24.50
2022-11-24T05:05:37.499Z,28.52
2022-11-24T05:08:40.705Z,24.58
2022-11-24T05:11:44.531Z,26.05
2022-11-24T05:14:47.635Z,25.20
2022-11-24T05:17:50.840Z,25.30
2022-11-24T05:20:54.122Z,29.48
2022-11-24T05:23:57.351Z,29.23
2022-11-24T05:27:00.550Z,27.57
2022-11-24T05:30:04.997Z,30.75
2022-11-24T05:33:12.197Z,38.13
2022-11-24T05:36:34.168Z,36.72
2022-11-24T05:39:37.945Z,32.55
2022-11-24T05:42:46.548Z,35.10
2022-11-24T05:45:51.068Z,36.95
2022-11-24T05:48:54.495Z,39.28
2022-11-24T05:51:58.345Z,39.33
2022-11-24T05:55:01.751Z,38.40
2022-11-24T05:58:07.931Z,39.50
2022-11-24T06:01:11.235Z,39.05
2022-11-24T06:04:14.436Z,30.25
2022-11-24T06:07:17.950Z,44.28
2022-11-24T06:10:22.618Z,44.28
2022-11-24T06:13:25.972Z,32.88
2022-11-24T06:16:29.320Z,44.17
2022-11-24T06:19:34.748Z,32.33
2022-11-24T06:22:41.026Z,38.75
2022-11-24T06:25:47.376Z,39.40
2022-11-24T06:28:55.582Z,45.15
2022-11-24T06:31:58.986Z,43.43
2022-11-24T06:35:02.398Z,40.97
2022-11-24T06:38:05.905Z,39.05
2022-11-24T06:41:14.747Z,31.70
2022-11-24T06:44:18.257Z,40.33
2022-11-24T06:47:21.615Z,43.10
2022-11-24T06:50:29.232Z,44.05
2022-11-24T06:53:38.293Z,43.72
2022-11-24T06:56:41.710Z,44.60
2022-11-24T06:59:51.082Z,42.67
2022-11-24T07:02:55.990Z,46.00
2022-11-24T07:05:59.821Z,44.90
2022-11-24T07:09:05.908Z,44.65
2022-11-24T07:12:09.336Z,40.63
2022-11-24T07:15:14.373Z,44.38
2022-11-24T07:18:17.694Z,43.30
2022-11-24T07:21:22.885Z,42.95
2022-11-24T07:24:27.337Z,41.00
2022-11-24T07:27:30.751Z,43.37
2022-11-24T07:30:34.003Z,40.28
2022-11-24T07:33:37.574Z,40.47
2022-11-24T07:36:41.124Z,39.97
2022-11-24T07:39:44.531Z,38.45
2022-11-24T07:42:47.945Z,43.27
2022-11-24T07:45:54.450Z,40.08
2022-11-24T07:48:57.857Z,42.35
2022-11-24T07:52:01.372Z,43.15
2022-11-24T07:55:05.701Z,37.57
2022-11-24T07:58:08.879Z,43.92
2022-11-24T08:01:17.257Z,39.72
2022-11-24T08:04:20.914Z,43.13
2022-11-24T08:07:24.592Z,38.17
2022-11-24T08:10:28.593Z,42.80
2022-11-24T08:13:31.772Z,43.28
2022-11-24T08:16:35.125Z,43.90
2022-11-24T08:19:41.386Z,41.58
2022-11-24T08:22:44.978Z,42.22
2022-11-24T08:25:51.700Z,45.43
2022-11-24T08:29:01.040Z,46.33
2022-11-24T08:32:08.030Z,44.15
2022-11-24T08:35:14.237Z,49.90
2022-11-24T08:38:17.756Z,50.67
2022-11-24T08:41:21.126Z,48.53
2022-11-24T08:44:33.575Z,49.25
2022-11-24T08:47:37.553Z,47.88
2022-11-24T08:50:59.645Z,47.75
2022-11-24T08:54:03.503Z,44.57
2022-11-24T08:57:06.899Z,43.28
2022-11-24T09:00:11.324Z,42.85
2022-11-24T09:03:15.027Z,45.10
2022-11-24T09:06:24.907Z,42.90
2022-11-24T09:09:28.341Z,43.50
2022-11-24T09:12:33.888Z,43.75
2022-11-24T09:15:42.591Z,39.80
2022-11-24T09:18:46.562Z,40.38
2022-11-24T09:21:50.157Z,39.72
2022-11-24T09:24:53.658Z,33.05
2022-11-24T09:27:57.503Z,33.35
2022-11-24T09:31:06.311Z,32.88
2022-11-24T09:34:13.556Z,31.40
2022-11-24T09:37:17.604Z,32.45
2022-11-24T09:40:22.741Z,28.55
2022-11-24T09:43:38.093Z,26.73
2022-11-24T09:46:53.816Z,25.57
2022-11-24T09:50:11.452Z,25.42
2022-11-24T09:53:38.897Z,25.08
2022-11-24T09:56:42.990Z,23.70
2022-11-24T09:59:46.235Z,22.10
2022-11-24T10:02:50.197Z,20.88
2022-11-24T10:05:53.972Z,21.67
2022-11-24T10:09:18.866Z,19.45
2022-11-24T10:12:30.430Z,20.27
2022-11-24T10:15:58.606Z,19.52
2022-11-24T10:19:22.035Z,23.35
2022-11-24T10:22:56.095Z,20.42
2022-11-24T10:26:01.008Z,19.83
2022-11-24T10:29:34.159Z,20.73
2022-11-24T10:32:45.282Z,19.52
2022-11-24T10:36:00.712Z,19.52
2022-11-24T10:39:13.628Z,21.30
2022-11-24T10:42:28.698Z,23.80
2022-11-24T10:45:33.091Z,22.08
2022-11-24T10:48:49.927Z,21.38
2022-11-24T10:52:07.153Z,24.38
2022-11-24T10:55:11.179Z,23.67
2022-11-24T10:58:17.648Z,22.63
2022-11-24T11:01:29.503Z,24.70
2022-11-24T11:04:35.439Z,28.15
2022-11-24T11:07:41.340Z,24.30
2022-11-24T11:10:46.486Z,24.38
2022-11-24T11:14:01.703Z,23.80
2022-11-24T11:17:37.218Z,27.10
2022-11-24T11:20:40.576Z,29.95
2022-11-24T11:23:46.321Z,27.77
2022-11-24T11:27:04.500Z,28.03
2022-11-24T11:34:05.518Z,28.50
2022-11-24T11:37:14.533Z,30.58
2022-11-24T11:40:24.574Z,27.23
2022-11-24T11:43:37.881Z,29.53
2022-11-24T11:46:43.818Z,24.52
2022-11-24T11:49:50.079Z,29.17
2022-11-24T11:53:14.304Z,26.85
2022-11-24T11:56:35.034Z,30.27
2022-11-24T11:59:44.669Z,32.77
2022-11-24T12:02:59.568Z,22.88
2022-11-24T12:06:20.910Z,24.42
2022-11-24T12:10:07.381Z,22.40
2022-11-24T12:13:37.965Z,22.95
2022-11-24T12:17:07.965Z,20.50
2022-11-24T12:20:20.445Z,21.63
2022-11-24T12:24:09.094Z,25.55
2022-11-24T12:28:04.792Z,19.25
2022-11-24T12:31:31.657Z,25.35
2022-11-24T12:34:59.242Z,21.87
2022-11-24T12:38:23.577Z,17.20
2022-11-24T12:41:49.167Z,16.25
2022-11-24T12:44:58.312Z,18.90
2022-11-24T12:48:04.853Z,17.33
2022-11-24T12:51:22.873Z,16.37
2022-11-24T12:54:29.120Z,16.40
2022-11-24T12:57:41.348Z,17.42
2022-11-24T13:01:22.410Z,18.75
2022-11-24T13:04:28.871Z,16.33
2022-11-24T13:07:46.131Z,15.03
2022-11-24T13:10:58.051Z,14.80
2022-11-24T13:14:14.798Z,18.17
2022-11-24T13:17:52.413Z,15.10
2022-11-24T13:21:01.287Z,17.30
2022-11-24T13:24:33.944Z,14.97
2022-11-24T13:27:45.239Z,15.30
2022-11-24T13:30:52.012Z,14.57
2022-11-24T13:33:55.636Z,14.07
2022-11-24T13:37:31.149Z,24.25
2022-11-24T13:40:23.091Z,15.57
2022-11-24T13:43:26.545Z,14.02
2022-11-24T13:47:07.220Z,18.90
2022-11-24T13:50:24.221Z,11.70
2022-11-24T13:53:45.388Z,12.38
2022-11-24T13:56:48.585Z,17.20
2022-11-24T13:59:51.842Z,11.73
2022-11-24T14:03:06.781Z,16.48
2022-11-24T14:06:24.052Z,15.48
2022-11-24T14:09:36.029Z,14.48
2022-11-24T14:12:39.297Z,12.43
2022-11-24T14:15:58.333Z,12.13
2022-11-24T14:19:10.949Z,12.85
2022-11-24T14:22:39.510Z,14.32
2022-11-24T14:25:49.433Z,12.10
2022-11-24T14:28:53.861Z,12.43
2022-11-24T14:32:00.952Z,13.73
2022-11-24T14:35:24.958Z,12.20
2022-11-24T14:38:28.468Z,13.70
2022-11-24T14:41:33.677Z,13.53
2022-11-24T14:44:54.220Z,15.52
2022-11-24T14:47:57.661Z,13.32
2022-11-24T14:51:26.561Z,14.43
2022-11-24T14:54:31.294Z,14.50
2022-11-24T14:57:36.458Z,14.87
2022-11-24T15:00:39.871Z,14.82
2022-11-24T15:03:43.218Z,12.43
2022-11-24T15:06:48.782Z,12.20
2022-11-24T15:10:00.669Z,17.85
2022-11-24T15:13:23.953Z,16.53
2022-11-24T15:16:29.136Z,25.15
2022-11-24T15:19:36.154Z,18.23
2022-11-24T15:22:42.602Z,17.38
2022-11-24T15:25:45.765Z,14.35
2022-11-24T15:28:49.407Z,12.37
2022-11-24T15:31:53.232Z,12.95
2022-11-24T15:34:56.607Z,13.40
2022-11-24T15:38:00.024Z,18.23
2022-11-24T15:41:14.001Z,15.15
2022-11-24T15:44:17.165Z,15.27
2022-11-24T15:47:20.354Z,17.52
2022-11-24T15:50:23.697Z,13.85
2022-11-24T15:54:01.388Z,14.60
2022-11-24T15:57:04.778Z,20.25
2022-11-24T16:00:10.249Z,21.43
2022-11-24T16:03:45.847Z,12.82
2022-11-24T16:06:38.738Z,13.32
2022-11-24T16:09:42.029Z,18.75
2022-11-24T16:12:50.182Z,15.25
2022-11-24T16:15:53.701Z,15.07
2022-11-24T16:18:57.133Z,16.48
2022-11-24T16:22:00.547Z,17.15
2022-11-24T16:25:04.372Z,12.70
2022-11-24T16:28:07.873Z,15.88
2022-11-24T16:31:12.671Z,20.50
2022-11-24T16:34:16.221Z,14.48
2022-11-24T16:37:21.738Z,14.63
2022-11-24T16:40:25.311Z,11.88
2022-11-24T16:43:29.560Z,17.35
2022-11-24T16:46:33.113Z,10.63
2022-11-24T16:49:36.554Z,10.90
2022-11-24T16:52:40.177Z,13.30
2022-11-24T16:55:43.335Z,11.60
2022-11-24T16:58:46.809Z,14.45
2022-11-24T17:01:50.872Z,10.50
2022-11-24T17:04:54.221Z,11.25
2022-11-24T17:07:58.203Z,13.05
2022-11-24T17:11:22.118Z,13.63
2022-11-24T17:14:25.873Z,10.88
2022-11-24T17:17:29.053Z,11.27
2022-11-24T17:20:32.538Z,12.00
2022-11-24T17:23:36.015Z,11.18
2022-11-24T17:26:39.337Z,11.13
2022-11-24T17:29:42.496Z,15.70
2022-11-24T17:32:45.963Z,13.27
2022-11-24T17:35:49.448Z,11.55
2022-11-24T17:38:52.956Z,10.50
2022-11-24T17:41:56.697Z,10.10
2022-11-24T17:45:00.177Z,11.40
2022-11-24T17:48:03.547Z,11.50
2022-11-24T17:51:10.685Z,14.50
2022-11-24T17:57:37.147Z,12.32
2022-11-24T18:00:40.624Z,13.48
2022-11-24T18:03:45.860Z,11.18
2022-11-24T18:06:52.471Z,11.87
2022-11-24T18:09:56.172Z,12.95
2022-11-24T18:12:59.407Z,12.30
2022-11-24T18:16:05.210Z,13.23
2022-11-24T18:19:11.035Z,10.77
2022-11-24T18:22:14.836Z,12.02
2022-11-24T18:25:18.179Z,17.60
2022-11-24T18:28:22.341Z,13.32
2022-11-24T18:31:26.404Z,13.17
2022-11-24T18:34:33.381Z,13.93
2022-11-24T18:37:43.318Z,10.27
2022-11-24T18:40:51.963Z,11.05
2022-11-24T18:43:55.367Z,14.70
2022-11-24T18:46:59.284Z,10.18
2022-11-24T18:50:02.961Z,14.52
2022-11-24T18:53:07.893Z,11.27
2022-11-24T18:56:18.192Z,11.17
2022-11-24T18:59:21.604Z,9.70
2022-11-24T19:02:25.255Z,11.82
2022-11-24T19:05:28.825Z,10.90
2022-11-24T19:08:32.588Z,13.17
2022-11-24T19:11:39.007Z,12.40
2022-11-24T19:14:42.133Z,15.88
2022-11-24T19:17:47.397Z,11.40
2022-11-24T19:20:51.100Z,10.67
2022-11-24T19:23:56.587Z,9.60
2022-11-24T19:27:03.231Z,11.82
2022-11-24T19:30:07.424Z,11.60
2022-11-24T19:33:11.172Z,12.57
2022-11-24T19:36:18.991Z,15.00
2022-11-24T19:39:23.016Z,13.50
2022-11-24T19:42:26.481Z,13.23
2022-11-24T19:45:30.551Z,14.13
2022-11-24T19:48:43.271Z,11.13
2022-11-24T19:51:48.883Z,18.30
2022-11-24T19:54:52.447Z,11.55
2022-11-24T19:57:55.971Z,11.77
2022-11-24T20:01:17.864Z,13.95
2022-11-24T20:04:21.512Z,11.80
2022-11-24T20:07:25.041Z,12.63
2022-11-24T20:10:28.575Z,13.87
2022-11-24T20:13:33.699Z,11.43
2022-11-24T20:16:37.419Z,13.85
2022-11-24T20:19:42.892Z,11.30
2022-11-24T20:22:46.617Z,13.70
2022-11-24T20:25:50.037Z,14.77
2022-11-24T20:28:55.489Z,13.15
2022-11-24T20:31:59.053Z,12.05
2022-11-24T20:35:02.938Z,15.13
2022-11-24T20:38:10.095Z,13.52
2022-11-24T20:41:19.880Z,15.68
2022-11-24T20:44:24.957Z,13.23
2022-11-24T20:47:30.803Z,15.57
2022-11-24T20:50:38.016Z,14.68
2022-11-24T20:53:42.280Z,17.30
2022-11-24T20:56:46.847Z,15.13
2022-11-24T20:59:52.421Z,13.37
2022-11-24T21:02:57.685Z,17.85
2022-11-24T21:06:01.470Z,14.60
2022-11-24T21:09:06.150Z,16.30
2022-11-24T21:12:09.525Z,13.65
2022-11-24T21:15:12.721Z,14.07
2022-11-24T21:18:16.814Z,16.30
2022-11-24T21:21:22.272Z,14.87
2022-11-24T21:24:25.742Z,16.92
2022-11-24T21:27:29.366Z,14.80
2022-11-24T21:30:33.059Z,19.48
2022-11-24T21:33:42.108Z,16.43
2022-11-24T21:36:45.453Z,17.67
2022-11-24T21:39:48.724Z,20.50
2022-11-24T21:42:51.940Z,18.83
2022-11-24T21:45:55.395Z,15.52
2022-11-24T21:48:58.715Z,20.17
2022-11-24T21:52:01.921Z,16.35
2022-11-24T21:55:05.364Z,18.77
2022-11-24T21:58:08.635Z,20.98
2022-11-24T22:01:13.181Z,22.45
2022-11-24T22:04:16.651Z,17.15
2022-11-24T22:07:19.939Z,19.93
2022-11-24T22:10:24.728Z,17.23
2022-11-24T22:13:27.962Z,19.73
2022-11-24T22:16:31.526Z,16.92
2022-11-24T22:19:34.704Z,20.50
2022-11-24T22:22:37.933Z,18.92
2022-11-24T22:25:41.173Z,20.63
2022-11-24T22:28:45.081Z,22.17
2022-11-24T22:31:54.821Z,21.88
2022-11-24T22:34:57.959Z,19.65
2022-11-24T22:38:01.128Z,22.40
2022-11-24T22:41:12.708Z,23.57
2022-11-24T22:44:15.819Z,20.45
2022-11-24T22:47:19.052Z,22.13
2022-11-24T22:50:22.434Z,20.33
2022-11-24T22:53:25.582Z,19.10
2022-11-24T22:56:32.194Z,21.02
2022-11-24T22:59:35.759Z,20.77
2022-11-24T23:02:38.990Z,24.13
2022-11-24T23:05:42.243Z,18.77
2022-11-24T23:08:45.576Z,20.92
2022-11-24T23:11:49.638Z,20.27
2022-11-24T23:14:52.807Z,23.85
2022-11-24T23:17:55.992Z,23.42
2022-11-24T23:21:05.322Z,21.80
2022-11-24T23:24:10.148Z,19.70
2022-11-24T23:27:13.279Z,20.23
2022-11-24T23:30:17.104Z,23.17
2022-11-24T23:33:20.387Z,23.50
2022-11-24T23:36:23.673Z,24.42
2022-11-24T23:39:26.997Z,22.57
2022-11-24T23:42:30.173Z,21.80
2022-11-24T23:45:33.489Z,23.05
2022-11-24T23:48:37.808Z,21.80
2022-11-24T23:51:42.105Z,23.70
2022-11-24T23:54:45.464Z,20.40
2022-11-24T23:57:48.683Z,22.23
